createdAt,value
2018-08-10T00:00:50.986Z,3.43
2018-08-10T00:03:20.070Z,3.33
2018-08-10T00:05:49.150Z,3.80
2018-08-10T00:08:18.273Z,3.17
2018-08-10T00:10:47.380Z,7.10
2018-08-10T00:13:16.576Z,4.93
2018-08-10T00:15:45.650Z,5.93
2018-08-10T00:18:14.863Z,3.60
2018-08-10T00:20:43.955Z,7.53
2018-08-10T00:23:13.031Z,7.67
2018-08-10T00:25:42.198Z,5.13
2018-08-10T00:28:11.327Z,5.77
2018-08-10T00:30:40.555Z,5.07
2018-08-10T00:33:09.680Z,6.67
2018-08-10T00:35:38.843Z,5.83
2018-08-10T00:38:07.959Z,8.50
2018-08-10T00:41:40.481Z,7.33
2018-08-10T00:44:09.595Z,3.33
2018-08-10T00:46:38.703Z,5.17
2018-08-10T00:49:07.796Z,4.73
2018-08-10T00:51:36.913Z,2.80
2018-08-10T00:54:05.986Z,4.63
2018-08-10T00:56:35.069Z,5.13
2018-08-10T00:59:04.157Z,4.73
2018-08-10T01:01:33.235Z,7.20
2018-08-10T01:04:02.399Z,4.27
2018-08-10T01:06:31.481Z,5.00
2018-08-10T01:09:00.563Z,3.40
2018-08-10T01:11:29.643Z,7.80
2018-08-10T01:13:59.316Z,4.37
2018-08-10T01:16:28.497Z,7.00
2018-08-10T01:18:57.564Z,5.20
2018-08-10T01:21:26.641Z,6.43
2018-08-10T01:23:55.759Z,4.57
2018-08-10T01:26:24.947Z,3.70
2018-08-10T01:28:54.166Z,3.03
2018-08-10T01:31:23.444Z,5.83
2018-08-10T01:33:52.724Z,6.80
2018-08-10T01:36:21.970Z,6.10
2018-08-10T01:38:56.470Z,5.70
2018-08-10T01:41:29.461Z,2.73
2018-08-10T01:43:58.569Z,4.80
2018-08-10T01:46:27.663Z,3.90
2018-08-10T01:48:56.733Z,3.20
2018-08-10T01:51:25.877Z,3.37
2018-08-10T01:53:54.921Z,3.90
2018-08-10T01:56:24.041Z,8.03
2018-08-10T01:58:53.155Z,5.50
2018-08-10T02:01:22.215Z,3.33
2018-08-10T02:03:51.271Z,2.40
2018-08-10T02:06:20.420Z,4.07
2018-08-10T02:08:49.544Z,2.50
2018-08-10T02:11:18.616Z,3.50
2018-08-10T02:13:47.890Z,2.13
2018-08-10T02:16:17.054Z,3.50
2018-08-10T02:18:46.117Z,2.70
2018-08-10T02:21:15.204Z,1.90
2018-08-10T02:23:44.289Z,5.40
2018-08-10T02:26:13.390Z,2.13
2018-08-10T02:28:42.483Z,2.47
2018-08-10T02:31:11.546Z,4.53
2018-08-10T02:33:40.616Z,3.73
2018-08-10T02:36:09.704Z,7.67
2018-08-10T02:38:38.775Z,2.87
2018-08-10T02:41:07.814Z,2.27
2018-08-10T02:43:36.920Z,4.10
2018-08-10T02:46:06.071Z,3.07
2018-08-10T02:48:35.140Z,2.87
2018-08-10T02:51:04.239Z,2.80
2018-08-10T02:53:33.360Z,1.93
2018-08-10T02:56:02.440Z,2.87
2018-08-10T02:58:31.490Z,4.07
2018-08-10T03:01:00.568Z,2.67
2018-08-10T03:03:30.004Z,3.13
2018-08-10T03:05:59.115Z,1.57
2018-08-10T03:08:28.218Z,1.50
2018-08-10T03:10:57.354Z,3.80
2018-08-10T03:13:26.411Z,5.70
2018-08-10T03:15:55.544Z,1.80
2018-08-10T03:18:24.597Z,1.10
2018-08-10T03:20:53.685Z,2.03
2018-08-10T03:23:22.751Z,1.20
2018-08-10T03:25:51.889Z,3.83
2018-08-10T03:28:21.005Z,2.60
2018-08-10T03:30:55.636Z,2.53
2018-08-10T03:33:24.731Z,2.57
2018-08-10T03:35:53.847Z,4.10
2018-08-10T03:38:22.915Z,3.27
2018-08-10T03:40:52.093Z,9.27
2018-08-10T03:43:21.195Z,3.77
2018-08-10T03:45:50.291Z,1.83
2018-08-10T03:48:19.367Z,2.73
2018-08-10T03:50:48.471Z,2.23
2018-08-10T03:53:17.523Z,3.60
2018-08-10T03:55:46.575Z,3.13
2018-08-10T03:58:15.679Z,2.93
2018-08-10T04:00:44.779Z,3.57
2018-08-10T04:03:13.858Z,1.67
2018-08-10T04:05:42.940Z,5.07
2018-08-10T04:08:11.987Z,4.30
2018-08-10T04:10:41.147Z,5.23
2018-08-10T04:13:10.211Z,3.30
2018-08-10T04:15:39.330Z,6.33
2018-08-10T04:18:08.455Z,4.33
2018-08-10T04:20:37.527Z,5.73
2018-08-10T04:23:06.935Z,3.80
2018-08-10T04:25:36.027Z,4.87
2018-08-10T04:28:10.595Z,4.10
2018-08-10T04:30:39.672Z,3.03
2018-08-10T04:33:08.791Z,5.20
2018-08-10T04:35:37.948Z,2.30
2018-08-10T04:38:07.151Z,7.77
2018-08-10T04:40:36.279Z,6.30
2018-08-10T04:43:05.427Z,2.73
2018-08-10T04:45:34.499Z,4.37
2018-08-10T04:48:04.296Z,7.87
2018-08-10T04:50:34.005Z,4.83
2018-08-10T04:53:03.168Z,5.57
2018-08-10T04:55:32.248Z,3.53
2018-08-10T04:58:01.289Z,4.60
2018-08-10T05:00:30.437Z,6.40
2018-08-10T05:02:59.539Z,7.63
2018-08-10T05:05:28.647Z,8.43
2018-08-10T05:07:57.700Z,5.67
2018-08-10T05:10:27.222Z,7.57
2018-08-10T05:12:56.320Z,5.47
2018-08-10T05:15:25.391Z,4.47
2018-08-10T05:17:54.447Z,7.50
2018-08-10T05:20:23.505Z,7.40
2018-08-10T05:22:52.579Z,3.83
2018-08-10T05:25:21.630Z,5.03
2018-08-10T05:27:50.724Z,6.33
2018-08-10T05:30:20.447Z,5.63
2018-08-10T05:32:49.511Z,5.60
2018-08-10T05:35:18.592Z,5.47
2018-08-10T05:37:47.848Z,7.33
2018-08-10T05:40:17.180Z,7.37
2018-08-10T05:42:46.396Z,5.83
2018-08-10T05:45:15.490Z,6.13
2018-08-10T05:47:44.591Z,7.53
2018-08-10T05:50:13.691Z,7.53
2018-08-10T05:52:42.733Z,5.67
2018-08-10T05:55:11.780Z,10.03
2018-08-10T05:57:40.831Z,6.10
2018-08-10T06:00:10.344Z,6.30
2018-08-10T06:02:39.488Z,8.27
2018-08-10T06:05:08.598Z,9.23
2018-08-10T06:07:37.832Z,5.57
2018-08-10T06:10:08.764Z,3.63
2018-08-10T06:12:37.932Z,6.57
2018-08-10T06:15:08.494Z,3.03
2018-08-10T06:17:37.696Z,2.03
2018-08-10T06:20:07.884Z,2.73
2018-08-10T06:22:37.040Z,3.47
2018-08-10T06:25:06.446Z,3.97
2018-08-10T06:27:35.798Z,3.70
2018-08-10T06:30:07.966Z,4.37
2018-08-10T06:32:37.091Z,4.60
2018-08-10T06:35:06.220Z,3.17
2018-08-10T06:37:35.642Z,3.17
2018-08-10T06:40:05.424Z,6.57
2018-08-10T06:42:34.532Z,8.60
2018-08-10T06:45:03.778Z,4.60
2018-08-10T06:47:32.906Z,5.63
2018-08-10T06:50:02.027Z,10.70
2018-08-10T06:52:31.083Z,8.63
2018-08-10T06:55:00.152Z,6.37
2018-08-10T06:57:29.364Z,10.23
2018-08-10T06:59:58.406Z,6.57
2018-08-10T07:02:27.522Z,9.10
2018-08-10T07:04:56.602Z,6.93
2018-08-10T07:07:25.677Z,9.37
2018-08-10T07:09:55.024Z,5.37
2018-08-10T07:12:24.150Z,5.30
2018-08-10T07:14:53.292Z,8.73
2018-08-10T07:17:22.370Z,8.77
2018-08-10T07:19:51.432Z,9.03
2018-08-10T07:22:20.503Z,7.80
2018-08-10T07:24:49.564Z,4.80
2018-08-10T07:27:18.773Z,5.37
2018-08-10T07:29:47.909Z,4.57
2018-08-10T07:32:17.060Z,7.93
2018-08-10T07:34:46.129Z,6.17
2018-08-10T07:37:15.262Z,51.97
2018-08-10T07:39:44.454Z,69.00
2018-08-10T07:42:13.579Z,44.67
2018-08-10T07:44:42.791Z,21.00
2018-08-10T07:47:11.854Z,14.47
2018-08-10T07:49:40.919Z,15.53
2018-08-10T07:52:10.056Z,7.03
2018-08-10T07:54:39.295Z,8.33
2018-08-10T07:57:08.458Z,8.23
2018-08-10T07:59:37.655Z,3.50
2018-08-10T08:02:06.717Z,7.23
2018-08-10T08:04:35.875Z,6.60
2018-08-10T08:07:04.962Z,6.33
2018-08-10T08:09:34.345Z,7.80
2018-08-10T08:12:03.410Z,6.60
2018-08-10T08:14:32.472Z,5.77
2018-08-10T08:17:01.578Z,6.60
2018-08-10T08:19:30.758Z,8.73
2018-08-10T08:22:16.812Z,3.37
2018-08-10T08:24:45.919Z,7.77
2018-08-10T08:27:16.142Z,3.47
2018-08-10T08:29:45.359Z,6.70
2018-08-10T08:32:14.477Z,7.27
2018-08-10T08:34:43.639Z,6.23
2018-08-10T08:37:12.907Z,8.47
2018-08-10T08:39:53.067Z,5.77
2018-08-10T08:42:22.247Z,10.33
2018-08-10T08:46:02.488Z,9.07
2018-08-10T08:48:33.172Z,8.97
2018-08-10T08:51:03.750Z,9.00
2018-08-10T08:53:32.816Z,6.33
2018-08-10T08:56:07.216Z,6.10
2018-08-10T08:58:37.082Z,8.67
2018-08-10T09:01:07.067Z,4.30
2018-08-10T09:03:47.712Z,8.63
2018-08-10T09:06:16.935Z,7.90
2018-08-10T09:08:57.408Z,3.17
2018-08-10T09:11:26.528Z,6.57
2018-08-10T09:15:00.444Z,5.43
2018-08-10T09:17:29.536Z,7.33
2018-08-10T09:19:58.857Z,8.33
2018-08-10T09:22:28.059Z,7.63
2018-08-10T09:24:57.271Z,15.40
2018-08-10T09:27:26.493Z,4.07
2018-08-10T09:29:55.547Z,6.17
2018-08-10T09:32:24.661Z,5.10
2018-08-10T09:34:53.965Z,7.13
2018-08-10T09:37:23.044Z,6.83
2018-08-10T09:39:52.214Z,4.87
2018-08-10T09:42:21.377Z,4.03
2018-08-10T09:44:50.747Z,6.57
2018-08-10T09:47:19.958Z,8.57
2018-08-10T09:49:49.833Z,5.03
2018-08-10T09:52:19.575Z,9.47
2018-08-10T09:55:25.075Z,8.17
2018-08-10T09:57:58.392Z,5.47
2018-08-10T10:00:32.979Z,6.53
2018-08-10T10:03:07.663Z,5.80
2018-08-10T10:05:36.902Z,8.20
2018-08-10T10:08:06.137Z,7.77
2018-08-10T10:10:35.267Z,7.07
2018-08-10T10:13:04.572Z,3.80
2018-08-10T10:15:33.656Z,4.77
2018-08-10T10:18:02.743Z,5.07
2018-08-10T10:20:31.844Z,7.03
2018-08-10T10:23:00.943Z,4.87
2018-08-10T10:25:30.011Z,8.17
2018-08-10T10:27:59.067Z,5.43
2018-08-10T10:30:28.163Z,10.73
2018-08-10T10:32:57.260Z,6.73
2018-08-10T10:35:26.323Z,8.53
2018-08-10T10:37:55.375Z,4.43
2018-08-10T10:40:24.483Z,5.83
2018-08-10T10:42:53.627Z,5.30
2018-08-10T10:45:22.811Z,4.10
2018-08-10T10:47:51.891Z,5.13
2018-08-10T10:50:20.952Z,5.90
2018-08-10T10:52:50.091Z,4.47
2018-08-10T10:55:19.189Z,4.53
2018-08-10T11:02:26.072Z,3.50
2018-08-10T11:04:55.175Z,2.80
2018-08-10T11:07:24.297Z,2.10
2018-08-10T11:09:53.371Z,3.43
2018-08-10T11:12:22.499Z,2.27
2018-08-10T11:14:51.571Z,2.10
2018-08-10T11:17:20.791Z,3.27
2018-08-10T11:19:50.007Z,3.57
2018-08-10T11:22:19.197Z,9.03
2018-08-10T11:24:48.416Z,11.83
2018-08-10T11:27:17.567Z,4.37
2018-08-10T11:29:46.662Z,1.53
2018-08-10T11:32:15.863Z,3.07
2018-08-10T11:34:44.918Z,1.83
2018-08-10T11:37:14.045Z,2.20
2018-08-10T11:39:43.161Z,1.67
2018-08-10T11:42:12.243Z,3.40
2018-08-10T11:44:41.402Z,3.10
2018-08-10T11:47:10.555Z,2.83
2018-08-10T11:49:39.643Z,3.63
2018-08-10T11:52:08.752Z,2.90
2018-08-10T11:54:37.852Z,3.77
2018-08-10T11:57:06.912Z,3.87
2018-08-10T11:59:35.974Z,1.33
2018-08-10T12:02:05.127Z,4.67
2018-08-10T12:04:34.183Z,2.93
2018-08-10T12:07:03.311Z,3.00
2018-08-10T12:09:32.432Z,5.53
2018-08-10T12:12:02.244Z,3.77
2018-08-10T12:14:31.543Z,6.00
2018-08-10T12:17:01.339Z,5.57
2018-08-10T12:19:30.645Z,2.90
2018-08-10T12:21:59.944Z,7.63
2018-08-10T12:24:29.039Z,3.23
2018-08-10T12:26:58.210Z,5.53
2018-08-10T12:29:27.330Z,5.80
2018-08-10T12:31:56.393Z,8.80
2018-08-10T12:34:25.502Z,4.37
2018-08-10T12:36:54.605Z,4.53
2018-08-10T12:39:23.807Z,5.83
2018-08-10T12:41:52.910Z,4.30
2018-08-10T12:44:21.999Z,4.30
2018-08-10T12:46:51.147Z,3.73
2018-08-10T12:49:20.255Z,5.07
2018-08-10T12:51:49.375Z,7.13
2018-08-10T12:54:18.522Z,2.37
2018-08-10T12:56:47.675Z,1.97
2018-08-10T12:59:16.879Z,4.23
2018-08-10T13:01:45.984Z,2.87
2018-08-10T13:04:15.102Z,9.10
2018-08-10T13:06:44.179Z,4.17
2018-08-10T13:09:14.056Z,3.97
2018-08-10T13:11:43.212Z,2.53
2018-08-10T13:14:12.389Z,4.43
2018-08-10T13:16:41.467Z,4.90
2018-08-10T13:19:10.603Z,2.03
2018-08-10T13:21:40.617Z,2.17
2018-08-10T13:24:09.695Z,2.87
2018-08-10T13:26:38.771Z,1.50
2018-08-10T13:29:08.529Z,4.50
2018-08-10T13:31:37.599Z,2.43
2018-08-10T13:34:06.845Z,5.70
2018-08-10T13:36:35.976Z,4.50
2018-08-10T13:39:08.679Z,2.67
2018-08-10T13:41:37.896Z,4.17
2018-08-10T13:44:07.059Z,5.73
2018-08-10T13:46:36.216Z,3.53
2018-08-10T13:49:05.299Z,5.87
2018-08-10T13:51:34.463Z,2.63
2018-08-10T13:54:03.771Z,2.87
2018-08-10T13:56:32.973Z,5.67
2018-08-10T13:59:02.061Z,4.87
2018-08-10T14:01:31.119Z,4.10
2018-08-10T14:04:00.236Z,8.30
2018-08-10T14:06:29.435Z,2.33
2018-08-10T14:08:58.605Z,3.40
2018-08-10T14:11:27.820Z,5.20
2018-08-10T14:13:56.923Z,1.80
2018-08-10T14:16:26.119Z,2.27
2018-08-10T14:18:55.229Z,2.37
2018-08-10T14:21:24.279Z,1.40
2018-08-10T14:23:53.447Z,3.80
2018-08-10T14:26:22.637Z,2.00
2018-08-10T14:28:51.737Z,2.17
2018-08-10T14:31:20.927Z,4.53
2018-08-10T14:33:50.024Z,3.83
2018-08-10T14:36:19.267Z,2.10
2018-08-10T14:38:48.487Z,2.83
2018-08-10T14:41:17.609Z,3.53
2018-08-10T14:43:46.995Z,3.50
2018-08-10T14:46:16.162Z,4.50
2018-08-10T14:48:45.267Z,2.47
2018-08-10T14:51:14.349Z,2.87
2018-08-10T14:53:43.467Z,5.10
2018-08-10T14:56:12.771Z,4.70
2018-08-10T14:58:41.871Z,3.00
2018-08-10T15:01:10.970Z,4.17
2018-08-10T15:03:40.068Z,4.10
2018-08-10T15:06:09.137Z,3.53
2018-08-10T15:08:38.394Z,4.03
2018-08-10T15:11:07.475Z,4.97
2018-08-10T15:13:36.529Z,5.00
2018-08-10T15:16:05.776Z,4.17
2018-08-10T15:18:35.126Z,4.33
2018-08-10T15:21:04.282Z,4.20
2018-08-10T15:23:33.320Z,3.07
2018-08-10T15:26:02.492Z,5.73
2018-08-10T15:28:31.709Z,13.00
2018-08-10T15:31:00.836Z,4.87
2018-08-10T15:33:30.354Z,5.47
2018-08-10T15:35:59.601Z,3.57
2018-08-10T15:38:28.730Z,4.40
2018-08-10T15:40:57.993Z,4.33
2018-08-10T15:43:27.291Z,3.73
2018-08-10T15:45:56.447Z,3.10
2018-08-10T15:48:31.067Z,5.17
2018-08-10T15:51:00.255Z,6.17
2018-08-10T15:53:29.355Z,6.30
2018-08-10T15:55:58.427Z,6.67
2018-08-10T15:58:27.780Z,4.53
2018-08-10T16:00:56.916Z,3.40
2018-08-10T16:03:26.060Z,2.37
2018-08-10T16:05:55.302Z,4.93
2018-08-10T16:08:30.042Z,4.70
2018-08-10T16:11:04.842Z,3.93
2018-08-10T16:13:34.036Z,4.67
2018-08-10T16:16:03.134Z,7.80
2018-08-10T16:18:32.207Z,2.43
2018-08-10T16:21:01.379Z,6.70
2018-08-10T16:23:30.726Z,2.63
2018-08-10T16:25:59.844Z,5.40
2018-08-10T16:28:29.061Z,6.23
2018-08-10T16:30:58.265Z,4.30
2018-08-10T16:33:27.474Z,4.43
2018-08-10T16:35:56.673Z,4.83
2018-08-10T16:38:25.882Z,5.27
2018-08-10T16:40:54.986Z,4.47
2018-08-10T16:43:24.076Z,3.20
2018-08-10T16:45:53.927Z,7.00
2018-08-10T16:48:23.072Z,2.90
2018-08-10T16:50:52.237Z,3.13
2018-08-10T16:53:21.302Z,4.20
2018-08-10T16:55:50.362Z,4.13
2018-08-10T16:58:19.498Z,3.57
2018-08-10T17:00:48.977Z,3.90
2018-08-10T17:03:18.138Z,5.17
2018-08-10T17:05:47.227Z,5.63
2018-08-10T17:08:16.365Z,2.60
2018-08-10T17:10:45.682Z,3.17
2018-08-10T17:13:14.880Z,4.03
2018-08-10T17:15:44.089Z,3.23
2018-08-10T17:18:18.682Z,2.63
2018-08-10T17:20:47.834Z,9.07
2018-08-10T17:23:17.009Z,6.00
2018-08-10T17:25:46.072Z,5.20
2018-08-10T17:28:15.398Z,3.93
2018-08-10T17:30:44.480Z,3.50
2018-08-10T17:33:13.620Z,4.30
2018-08-10T17:35:43.002Z,3.50
2018-08-10T17:38:12.105Z,6.00
2018-08-10T17:40:41.175Z,5.40
2018-08-10T17:43:10.372Z,4.17
2018-08-10T17:45:39.503Z,2.90
2018-08-10T17:48:08.600Z,2.23
2018-08-10T17:50:37.754Z,5.97
2018-08-10T17:53:07.693Z,3.73
2018-08-10T17:55:36.759Z,2.87
2018-08-10T17:58:06.084Z,9.93
2018-08-10T18:00:35.155Z,5.30
2018-08-10T18:03:04.490Z,3.30
2018-08-10T18:05:34.098Z,4.20
2018-08-10T18:08:03.323Z,7.03
2018-08-10T18:10:33.133Z,4.97
2018-08-10T18:13:03.673Z,2.97
2018-08-10T18:15:32.928Z,2.33
2018-08-10T18:18:02.005Z,2.47
2018-08-10T18:20:31.269Z,3.00
2018-08-10T18:23:00.331Z,3.97
2018-08-10T18:25:30.278Z,3.63
2018-08-10T18:27:59.641Z,3.13
2018-08-10T18:30:28.829Z,2.97
2018-08-10T18:32:57.904Z,2.73
2018-08-10T18:35:27.029Z,2.80
2018-08-10T18:37:57.698Z,4.93
2018-08-10T18:40:27.127Z,10.73
2018-08-10T18:42:56.447Z,3.33
2018-08-10T18:45:25.962Z,4.43
2018-08-10T18:47:55.423Z,3.50
2018-08-10T18:50:24.965Z,3.03
2018-08-10T18:52:54.250Z,6.63
2018-08-10T18:55:24.045Z,1.53
2018-08-10T18:57:53.486Z,5.97
2018-08-10T19:00:25.331Z,5.20
2018-08-10T19:02:55.102Z,3.90
2018-08-10T19:05:24.515Z,2.23
2018-08-10T19:07:53.874Z,8.07
2018-08-10T19:10:25.674Z,4.73
2018-08-10T19:12:54.738Z,3.30
2018-08-10T19:15:23.802Z,4.70
2018-08-10T19:17:53.240Z,1.93
2018-08-10T19:20:22.298Z,5.07
2018-08-10T19:22:52.080Z,2.97
2018-08-10T19:25:21.140Z,2.43
2018-08-10T19:27:50.202Z,4.93
2018-08-10T19:30:22.047Z,3.07
2018-08-10T19:32:51.258Z,2.53
2018-08-10T19:35:20.533Z,2.23
2018-08-10T19:37:49.594Z,2.17
2018-08-10T19:40:19.580Z,3.57
2018-08-10T19:42:48.948Z,3.20
2018-08-10T19:45:18.540Z,4.60
2018-08-10T19:47:47.754Z,2.10
2018-08-10T19:50:17.737Z,5.40
2018-08-10T19:52:46.843Z,1.93
2018-08-10T19:55:16.230Z,2.20
2018-08-10T19:57:45.494Z,3.03
2018-08-10T20:00:16.409Z,5.07
2018-08-10T20:02:48.388Z,6.27
2018-08-10T20:05:17.612Z,4.53
2018-08-10T20:07:46.979Z,5.47
2018-08-10T20:10:16.454Z,2.23
2018-08-10T20:12:45.780Z,1.87
2018-08-10T20:15:16.428Z,2.30
2018-08-10T20:17:45.734Z,1.60
2018-08-10T20:20:16.692Z,2.97
2018-08-10T20:22:46.641Z,6.07
2018-08-10T20:25:16.455Z,2.97
2018-08-10T20:27:45.672Z,2.53
2018-08-10T20:30:16.657Z,5.17
2018-08-10T20:32:46.566Z,2.80
2018-08-10T20:35:18.719Z,8.23
2018-08-10T20:37:47.919Z,2.60
2018-08-10T20:40:18.509Z,2.20
2018-08-10T20:42:48.196Z,3.43
2018-08-10T20:45:18.404Z,3.37
2018-08-10T20:47:47.482Z,4.10
2018-08-10T20:50:20.363Z,3.63
2018-08-10T20:52:49.574Z,2.93
2018-08-10T20:55:18.880Z,2.43
2018-08-10T20:57:48.226Z,4.43
2018-08-10T21:00:17.286Z,4.23
2018-08-10T21:02:46.766Z,3.63
2018-08-10T21:05:16.071Z,3.43
2018-08-10T21:07:45.583Z,2.97
2018-08-10T21:10:15.765Z,5.87
2018-08-10T21:12:45.666Z,2.80
2018-08-10T21:15:15.707Z,10.07
2018-08-10T21:17:45.403Z,15.57
2018-08-10T21:20:17.436Z,27.00
2018-08-10T21:22:46.486Z,33.00
2018-08-10T21:25:15.552Z,35.40
2018-08-10T21:27:44.959Z,41.87
2018-08-10T21:30:15.626Z,34.73
2018-08-10T21:32:44.675Z,30.13
2018-08-10T21:35:13.751Z,25.43
2018-08-10T21:37:42.880Z,26.10
2018-08-10T21:40:12.391Z,20.13
2018-08-10T21:42:42.410Z,21.07
2018-08-10T21:45:13.191Z,17.80
2018-08-10T21:47:42.299Z,22.57
2018-08-10T21:50:13.683Z,17.47
2018-08-10T21:52:43.668Z,19.50
2018-08-10T21:55:12.899Z,17.53
2018-08-10T21:57:42.082Z,17.77
2018-08-10T22:00:51.807Z,17.30
2018-08-10T22:03:22.015Z,13.47
2018-08-10T22:05:51.204Z,16.83
2018-08-10T22:08:21.328Z,15.13
2018-08-10T22:10:50.468Z,12.80
2018-08-10T22:13:24.859Z,10.30
2018-08-10T22:15:59.208Z,7.97
2018-08-10T22:18:33.720Z,11.93
2018-08-10T22:21:02.871Z,8.37
2018-08-10T22:23:31.939Z,12.00
2018-08-10T22:26:00.991Z,8.83
2018-08-10T22:28:30.051Z,6.97
2018-08-10T22:30:59.121Z,9.47
2018-08-10T22:33:28.271Z,6.87
2018-08-10T22:35:57.371Z,10.57
2018-08-10T22:38:26.484Z,10.13
2018-08-10T22:40:55.556Z,6.20
2018-08-10T22:43:24.600Z,3.57
2018-08-10T22:45:53.715Z,4.47
2018-08-10T22:48:22.831Z,5.30
2018-08-10T22:50:51.959Z,4.47
2018-08-10T22:53:21.350Z,3.47
2018-08-10T22:55:50.532Z,5.33
2018-08-10T22:58:19.688Z,3.80
2018-08-10T23:00:48.833Z,6.60
2018-08-10T23:03:17.959Z,4.83
2018-08-10T23:05:47.236Z,3.03
2018-08-10T23:08:16.327Z,4.70
2018-08-10T23:10:45.396Z,1.37
2018-08-10T23:13:14.597Z,2.00
2018-08-10T23:15:43.991Z,2.87
2018-08-10T23:18:13.168Z,2.00
2018-08-10T23:20:42.368Z,1.33
2018-08-10T23:23:11.460Z,2.03
2018-08-10T23:25:40.616Z,2.53
2018-08-10T23:28:09.695Z,1.67
2018-08-10T23:30:38.874Z,2.07
2018-08-10T23:33:08.152Z,2.17
2018-08-10T23:35:37.320Z,1.70
2018-08-10T23:38:06.400Z,1.20
2018-08-10T23:40:35.480Z,2.63
2018-08-10T23:43:04.602Z,1.93
2018-08-10T23:45:33.658Z,1.53
2018-08-10T23:48:02.834Z,3.57
2018-08-10T23:50:31.891Z,7.00
2018-08-10T23:53:00.973Z,1.77
2018-08-10T23:55:30.054Z,3.53
2018-08-10T23:57:59.140Z,1.83
